• Join FlightAware (Why Join?)
  • Login
  • US Flag 
12:27PM EDT


 

Airport Tracker/Info


-or-


 

Live Flight TrackerFlight Track Log ✈ SWA1688 ✈ 10-May-2013 ✈ KMCO - KALB

Flight Track Log - Related Links

Times and Time Zones

All times are in EDT time to prevent confusion due to time zone crossing. See the SWA1688 flight status page for this flight to view local times or setup timezone preferences in your user account.

Time Position Orientation Groundspeed Altitude Reporting Facility
EDT Latitude Longitude Course Direction KTS MPH feet Rate Location/Type
09:42PM 28.4167 -81.3000 156° South 163 188 800  Level Orlando TRACON
09:43PM 28.3833 -81.2833 156° South 186 214 2,200 2,580 Climbing Orlando TRACON
09:44PM 28.3833 -81.2167 90° East 227 261 5,300 3,360 Climbing Orlando TRACON
09:45PM 28.4500 -81.1833 24° Northeast 246 283 9,000 3,720 Climbing Orlando TRACON
09:46PM 28.5167 -81.2000 348° North 235 270 13,200 2,880 Climbing Orlando TRACON
09:49PM 28.6989 -81.2594 344° North 288 331 18,900 2,460 Climbing Jacksonville Center
09:50PM 28.7972 -81.2933 343° North 334 384 21,500 2,400 Climbing Jacksonville Center
09:51PM 28.9064 -81.3272 345° North 375 432 23,800 2,220 Climbing Jacksonville Center
09:52PM 29.0172 -81.3633 344° North 409 471 26,000 1,800 Climbing Jacksonville Center
09:53PM 29.1367 -81.3925 348° North 432 497 27,400 1,500 Climbing Jacksonville Center
09:54PM 29.2517 -81.4050 355° North 414 476 29,000 780 Climbing Jacksonville Center
09:55PM 29.3625 -81.4153 355° North 407 468 29,000  Level Jacksonville Center
09:56PM 29.4731 -81.4208 357° North 402 463 29,000  Level Jacksonville Center
09:57PM 29.5733 -81.4239 358° North 402 463 29,000  Level Jacksonville Center
09:58PM 29.6861 -81.4247 360° North 402 463 29,000  Level Jacksonville Center
09:59PM 29.7989 -81.4256 360° North 402 463 29,000  Level Jacksonville Center
10:00PM 29.9114 -81.4236 North 402 463 29,000  Level Jacksonville Center
10:01PM 30.0222 -81.4244 360° North 402 463 29,000  Level Jacksonville Center
10:02PM 30.1369 -81.4275 359° North 402 463 29,000  Level Jacksonville Center
10:03PM 30.2539 -81.4281 360° North 408 470 29,000  Level Jacksonville Center
10:04PM 30.3833 -81.4286 360° North 408 470 29,000  Level Jacksonville Center
10:05PM 30.4983 -81.4292 360° North 413 475 29,000  Level Jacksonville Center
10:06PM 30.6153 -81.4297 360° North 413 475 29,000  Level Jacksonville Center
10:07PM 30.7300 -81.4306 360° North 413 475 29,000  Level Jacksonville Center
10:08PM 30.8469 -81.4336 359° North 413 475 29,000  Level Jacksonville Center
10:09PM 30.9639 -81.4342 360° North 419 482 29,000  Level Jacksonville Center
10:10PM 31.0831 -81.4372 359° North 419 482 29,000  Level Jacksonville Center
10:11PM 31.2061 -81.4375 360° North 424 488 29,000  Level Jacksonville Center
10:12PM 31.3247 -81.4139 10° North 423 487 29,000  Level Jacksonville Center
10:13PM 31.4347 -81.3464 28° Northeast 428 493 29,000  Level Jacksonville Center
10:14PM 31.5425 -81.2814 27° Northeast 433 498 29,000  Level Jacksonville Center
10:15PM 31.6439 -81.2233 26° Northeast 433 498 29,000  Level Jacksonville Center
10:16PM 31.7622 -81.1528 27° Northeast 433 498 29,000  Level Jacksonville Center
10:17PM 31.8636 -81.0922 27° Northeast 439 505 29,000  Level Jacksonville Center
10:18PM 31.9856 -81.0211 26° Northeast 445 512 29,000  Level Jacksonville Center
10:19PM 32.0994 -80.9553 26° Northeast 445 512 29,000  Level Jacksonville Center
10:20PM 32.1989 -80.8967 27° Northeast 445 512 29,000  Level Jacksonville Center
10:21PM 32.3208 -80.8250 26° Northeast 445 512 29,000  Level Jacksonville Center
10:22PM 32.4325 -80.7561 28° Northeast 445 512 29,000  Level Jacksonville Center
10:23PM 32.5461 -80.6869 27° Northeast 445 512 29,000  Level Jacksonville Center
10:24PM 32.6556 -80.6225 26° Northeast 440 506 29,000  Level Jacksonville Center
10:25PM 32.7692 -80.5556 26° Northeast 446 513 29,000  Level Jacksonville Center
10:26PM 32.8828 -80.4883 26° Northeast 446 513 29,000  Level Jacksonville Center
10:27PM 32.9961 -80.4208 27° Northeast 446 513 29,000  Level Jacksonville Center
10:28PM 33.1136 -80.3481 27° Northeast 448 516 29,000  Level Jacksonville Center
10:29PM 33.2211 -80.2881 25° Northeast 465 535 29,000  Level Jacksonville Center
10:30PM 33.3342 -80.2150 28° Northeast 465 535 29,000  Level Jacksonville Center
10:31PM 33.4497 -80.1444 27° Northeast 465 535 29,000  Level Jacksonville Center
10:32PM 33.5650 -80.0736 27° Northeast 460 529 29,000  Level Jacksonville Center
10:33PM 33.6803 -80.0025 27° Northeast 460 529 29,000  Level Jacksonville Center
10:34PM 33.7953 -79.9286 28° Northeast 460 529 29,000  Level Jacksonville Center
10:35PM 33.9106 -79.8597 26° Northeast 460 529 29,000  Level Jacksonville Center
10:36PM 34.0236 -79.7881 28° Northeast 460 529 29,000  Level Jacksonville Center
10:38PM 34.2617 -79.6425 27° Northeast 450 518 29,000  Level Washington Center
10:39PM 34.3786 -79.5828 23° Northeast 457 526 29,000  Level Washington Center
10:40PM 34.4975 -79.5206 23° Northeast 452 520 29,000  Level Washington Center
10:41PM 34.6164 -79.4581 23° Northeast 452 520 29,000  Level Washington Center
10:42PM 34.7331 -79.3956 24° Northeast 447 514 29,000  Level Washington Center
10:43PM 34.8539 -79.3328 23° Northeast 447 514 29,000  Level Washington Center
10:44PM 34.9728 -79.2697 23° Northeast 453 521 29,000  Level Washington Center
10:45PM 35.0936 -79.2042 24° Northeast 458 527 29,000  Level Washington Center
10:46PM 35.2144 -79.1411 23° Northeast 463 533 29,000  Level Washington Center
10:47PM 35.3481 -79.0706 23° Northeast 463 533 29,000  Level Washington Center
10:48PM 35.4583 -79.0117 24° Northeast 463 533 29,000  Level Washington Center
10:49PM 35.5811 -78.9478 23° Northeast 463 533 29,000  Level Washington Center
10:50PM 35.7039 -78.8814 24° Northeast 463 533 29,000  Level Washington Center
10:51PM 35.8375 -78.8075 24° Northeast 463 533 29,000  Level Washington Center
10:52PM 35.9503 -78.7222 31° Northeast 463 533 29,000  Level Washington Center
10:53PM 36.0550 -78.6261 37° Northeast 468 539 29,000  Level Washington Center
10:54PM 36.1681 -78.5303 34° Northeast 474 545 29,000  Level Washington Center
10:55PM 36.2747 -78.4339 36° Northeast 479 551 29,000  Level Washington Center
10:56PM 36.3856 -78.3347 36° Northeast 484 557 29,000 420 Level Washington Center
10:57PM 36.5006 -78.2328 35° Northeast 490 564 29,900 1,500 Climbing Washington Center
10:58PM 36.5919 -78.1531 35° Northeast 490 564 32,000 2,280 Climbing Washington Center
10:59PM 36.7131 -78.0403 37° Northeast 490 564 34,600 2,340 Climbing Washington Center
11:00PM 36.8194 -77.9425 36° Northeast 485 558 36,700 1,800 Climbing Washington Center
11:01PM 36.9297 -77.8419 36° Northeast 485 558 38,300 1,440 Climbing Washington Center
11:02PM 37.0400 -77.7436 35° Northeast 485 558 39,700 1,260 Climbing Washington Center
11:03PM 37.1503 -77.6453 35° Northeast 485 558 40,900 600 Climbing Washington Center
11:04PM 37.2583 -77.5464 36° Northeast 480 552 41,000  Climbing Washington Center
11:05PM 37.3664 -77.4472 36° Northeast 480 552 41,000  Level Washington Center
11:06PM 37.4764 -77.3478 36° Northeast 480 552 41,000  Level Washington Center
11:07PM 37.5822 -77.2350 40° Northeast 486 559 41,000  Level Washington Center
11:08PM 37.6817 -77.1164 43° Northeast 486 559 41,000  Level Washington Center
11:09PM 37.7814 -76.9975 43° Northeast 486 559 41,000  Level Washington Center
11:10PM 37.8806 -76.8808 43° Northeast 486 559 41,000  Level Washington Center
11:11PM 37.9797 -76.7642 43° Northeast 481 554 41,000  Level Washington Center
11:12PM 38.0789 -76.6469 43° Northeast 481 554 41,000  Level Washington Center
11:13PM 38.1778 -76.5294 43° Northeast 481 554 41,000  Level Washington Center
11:14PM 38.2767 -76.4117 43° Northeast 476 548 41,000  Level Washington Center
11:15PM 38.3900 -76.3042 37° Northeast 463 533 41,000  Level Washington Center
11:16PM 38.4947 -76.2072 36° Northeast 463 533 41,000  Level Washington Center
11:17PM 38.5953 -76.1175 35° Northeast 473 544 41,000  Level Washington Center
11:18PM 38.7019 -76.0200 35° Northeast 478 550 41,000  Level Washington Center
11:19PM 38.8086 -75.9192 36° Northeast 473 544 41,000  Level Washington Center
11:20PM 38.9153 -75.8183 36° Northeast 473 544 41,000  Level Washington Center
11:21PM 39.0175 -75.7200 37° Northeast 473 544 41,000  Level Washington Center
11:22PM 39.1239 -75.6211 36° Northeast 473 544 41,000  Level Washington Center
11:23PM 39.2281 -75.5167 38° Northeast 473 544 41,000  Level Washington Center
11:24PM 39.3300 -75.4064 40° Northeast 473 544 41,000  Level Washington Center
11:25PM 39.4319 -75.2986 39° Northeast 473 544 41,000  Level Washington Center
11:26PM 39.5336 -75.1906 39° Northeast 473 544 41,000  Level Washington Center
11:27PM 39.6333 -75.0822 40° Northeast 468 539 41,000  Level Washington Center
11:28PM 39.7494 -74.9600 39° Northeast 476 548 41,000  Level Washington Center
11:29PM 39.8508 -74.8508 40° Northeast 476 548 41,000  Level Washington Center
11:29PM 39.9228 -74.7742 39° Northeast 468 539 41,000  Level New York Center
11:30PM 40.0242 -74.6661 39° Northeast 482 555 41,000  Level New York Center
11:31PM 40.1236 -74.5603 39° Northeast 472 543 41,000  Level New York Center
11:32PM 40.2103 -74.4564 42° Northeast 461 531 41,000 -180 Level New York Center
11:33PM 40.3072 -74.3500 40° Northeast 461 531 40,700 -660 Descending New York Center
11:34PM 40.4042 -74.2433 40° Northeast 450 518 39,700 -960 Descending New York Center
11:35PM 40.5056 -74.1311 40° Northeast 456 525 38,800 -1,020 Descending New York Center
11:38PM 40.7831 -73.9722 23° Northeast 435 501 36,400 -1,020 Descending Boston Center
11:39PM 40.9083 -73.9642 North 435 501 35,400 -960 Descending Boston Center
11:40PM 41.0356 -73.9508 North 440 506 34,500 -960 Descending Boston Center
11:41PM 41.1608 -73.9428 North 445 512 33,500 -1,020 Descending Boston Center
11:42PM 41.2881 -73.9319 North 450 518 32,500 -960 Descending Boston Center
11:43PM 41.4175 -73.9211 North 456 525 31,600 -1,320 Descending Boston Center
11:44PM 41.5447 -73.9072 North 462 532 29,900 -2,160 Descending Boston Center
11:45PM 41.6719 -73.8992 North 462 532 27,300 -2,160 Descending Boston Center
11:46PM 41.7950 -73.8853 North 455 524 25,600 -1,500 Descending Boston Center
11:46PM 41.8556 -73.8839 North 441 507 25,100 -900 Descending Boston Center
11:47PM 41.9097 -73.8822 North 432 497 24,700 -1,020 Descending Boston Center
11:47PM 41.9744 -73.8756 North 427 491 24,100 -1,620 Descending Boston Center
11:48PM 42.0286 -73.8711 North 425 489 23,100 -2,340 Descending Boston Center
11:48PM 42.0914 -73.8642 North 421 484 21,800 -2,520 Descending Boston Center
11:49PM 42.1456 -73.8597 North 425 489 20,600 -2,460 Descending Boston Center
11:49PM 42.2061 -73.8556 North 413 475 19,300 -2,220 Descending Boston Center
11:50PM 42.2478 -73.8508 North 420 483 18,400 -2,460 Descending Boston Center
11:50PM 42.3225 -73.8694 350° North 392 451 16,800 -2,520 Descending Boston Center
11:51PM 42.3642 -73.8758 354° North 402 463 15,900 -2,340 Descending Boston Center
11:51PM 42.4286 -73.8886 352° North 386 444 14,500 -2,100 Descending Boston Center
11:52PM 42.4597 -73.8950 351° North 387 445 13,800 -2,220 Descending Boston Center
11:52PM 42.5325 -73.9136 349° North 376 433 12,300 -2,340 Descending Boston Center
11:53PM 42.5700 -73.9258 347° North 374 430 11,500 -1,920 Descending Boston Center
11:53PM 42.6322 -73.9358 353° North 360 414 10,400 -1,320 Descending Boston Center
11:54PM 42.6719 -73.9367 359° North 369 425 10,200 -840 Descending Boston Center
11:54PM 42.7239 -73.9408 357° North 314 361 9,600 -1,200 Descending Boston Center
11:55PM 42.7572 -73.9417 359° North 339 390 9,000 -1,500 Descending Boston Center
11:55PM 42.8053 -73.9400 North 279 321 8,100 -1,320 Descending Boston Center
11:56PM 42.8364 -73.9408 359° North 305 351 7,700 -840 Descending Boston Center
11:56PM 42.8783 -73.9361 North 239 275 7,300 -720 Descending Boston Center
11:57PM 42.9011 -73.9367 359° North 249 287 7,000 -1,200 Descending Boston Center
11:57PM 42.9267 -73.9003 46° Northeast 224 258 6,100 -1,500 Descending Boston Center
11:58PM 42.9250 -73.8719 95° East 169 194 5,500 -1,380 Descending Boston Center
11:58PM 42.9214 -73.8181 95° East 197 227 4,700 -1,200 Descending Boston Center
11:59PM 42.9133 -73.8036 127° Southeast 160 184 4,300 -1,200 Descending Boston Center
11:59PM 42.8944 -73.8089 192° South 94 108 3,500 -1,200 Descending Boston Center
12:00AM 42.8819 -73.8086 179° South 95 109 3,100 -1,020 Descending Boston Center
12:00AM 42.8611 -73.8111 185° South 103 119 2,500 -1,020 Descending Boston Center
12:01AM 42.8547 -73.8108 178° South 106 122 2,100 -840 Descending Boston Center
12:01AM 42.8339 -73.8133 185° South 104 120 1,700 -600 Descending Boston Center
12:02AM 42.8006 -73.8097 175° South 102 117 1,100 -600 Descending Boston Center